Meteo Giornale » Osservazioni meteo Stati Uniti (USA) » Crane Lake Scotts Seaplane Base
ore: 20:13 - Osservazioni Meteo Crane Lake Scotts Seaplane Base
Lat. 48° 15' N Lon. 92° 29' W Alt. 341 metri s.l.m.
17 °C
Sereno
Temp. 24 Ore
17 °C
27 °C
Nord
0 Km/h
Dew point 17 °C
Umidità 100 %
Visibilità 10 Km
Il sole sorge alle ore 06:26
Il sole tramonta alle ore 19:53
| Data e Ora | Cielo e Fenomeni | T °C | DP °C | Um. % | Pres. hPa | Vis. km | Vento km/h | |
|---|---|---|---|---|---|---|---|---|
| Oggi h: 20:13 | Sereno | 17 | 17 | 100 | 1011 | 10 | N 0 | |
| Oggi h: 19:53 | Sereno | 18 | 17 | 93 | 1011 | 10 | N 0 | |
| Oggi h: 19:33 | Sereno | 19 | 18 | 93 | 1011 | 10 | N 0 | |
| Oggi h: 19:13 | Sereno | 21 | 19 | 88 | 1011 | 10 | N 0 | |
| Oggi h: 18:53 | Sereno | 23 | 17 | 68 | 1011 | 10 | N 0 | |
| Oggi h: 18:33 | Sereno | 26 | 16 | 54 | 1010 | 10 | N 5.5 | |
| Oggi h: 18:13 | Sereno | 26 | 16 | 54 | 1010 | 10 | S 7.4 | |
| Oggi h: 17:53 | Sereno | 27 | 14 | 44 | 1010 | 10 | N 5.5 | |
| Oggi h: 17:33 | Sereno | 27 | 13 | 42 | 1010 | 10 | N 0 | |
| Oggi h: 17:13 | Sereno | 27 | 14 | 44 | 1010 | 10 | O/SO 9.3 | |
| Oggi h: 16:53 | Sereno | 27 | 15 | 47 | 1010 | 10 | S/SO 9.3 | |
| Oggi h: 16:33 | Sereno | 27 | 14 | 44 | 1010 | 10 | N 5.5 | |
| Oggi h: 16:13 | Sereno | 27 | 16 | 50 | 1011 | 10 | O 7.4 | |
| Oggi h: 15:53 | Sereno | 27 | 16 | 50 | 1011 | 10 | O 13 | |
| Oggi h: 15:33 | Sereno | 27 | 14 | 44 | 1011 | 10 | O 7.4 | |
| Oggi h: 15:13 | Sereno | 27 | 16 | 50 | 1010 | 10 | O/NO 9.3 | |
| Oggi h: 14:53 | Sereno | 27 | 17 | 54 | 1010 | 10 | O 9.3 | |
| Oggi h: 14:33 | Sereno | 27 | 17 | 54 | 1011 | 10 | O 9.3 | |
| Oggi h: 14:13 | Sereno | 26 | 17 | 57 | 1010 | 10 | O 9.3 | |
| Oggi h: 13:53 | Sereno | 26 | 18 | 61 | 1010 | 10 | O 11.1 | |
| Oggi h: 13:33 | Nuvoloso | 26 | 21 | 73 | 1010 | 10 | O 9.3 | |
| Oggi h: 13:13 | Nuvoloso | 25 | 21 | 78 | 1010 | 10 | O 7.4 | |
| Oggi h: 12:53 | Molto Nuvoloso | 25 | 22 | 83 | 1010 | 10 | O/SO 9.3 | |
| Oggi h: 12:33 | Molto Nuvoloso | 24 | 22 | 88 | 1010 | 10 | N 0 | |
| Oggi h: 12:13 | Molto Nuvoloso | 23 | 22 | 94 | 1010 | 10 | N 0 | |
| Oggi h: 11:53 | Coperto | 22 | 21 | 94 | 1010 | 10 | N 0 | |
| Oggi h: 11:33 | Coperto | 22 | 21 | 94 | 1010 | 10 | N 0 | |
| Oggi h: 11:13 | Coperto | 22 | 21 | 94 | 1010 | 10 | N 0 | |
| Oggi h: 10:53 | Coperto | 21 | 21 | 100 | 1010 | 10 | N 0 | |
| Oggi h: 10:33 | Coperto | 21 | 21 | 100 | 1010 | 10 | N 0 | |
| Oggi h: 10:13 | Coperto | 21 | 20 | 94 | 1010 | 10 | N 0 | |
| Oggi h: 09:53 | Coperto | 21 | 20 | 94 | 1010 | 10 | N 0 | |
| Oggi h: 09:33 | Coperto | 20 | 19 | 93 | 1010 | 10 | N 0 | |
| Oggi h: 09:13 | Coperto | 20 | 19 | 93 | 1010 | 10 | N 0 | |
| Oggi h: 08:53 | Coperto | 19 | 19 | 100 | 1010 | 10 | N 0 | |
| Oggi h: 08:33 | Coperto | 19 | 19 | 100 | 1009 | 10 | N 0 | |
| Oggi h: 08:13 | Coperto | 19 | 19 | 100 | 1009 | 10 | N 0 | |
| Oggi h: 07:53 | Coperto | 18 | 18 | 100 | 1009 | 10 | N 0 | |
| Oggi h: 07:33 | Foschia | 18 | 18 | 100 | 1009 | 8 | N 0 | |
| Oggi h: 07:13 | Pioggia | 18 | 18 | 100 | 1009 | 6 | N 0 | |
| Oggi h: 06:53 | Coperto | 18 | 18 | 100 | 1009 | 11 | N 0 | |
| Oggi h: 06:33 | Coperto | 18 | 18 | 100 | 1009 | 10 | N 0 | |
| Oggi h: 06:13 | Sereno | 18 | 18 | 100 | 1009 | 11 | N 0 | |
| Oggi h: 05:53 | Sereno | 18 | 18 | 100 | 1009 | 11 | N 0 | |
| Oggi h: 05:33 | Sereno | 18 | 18 | 100 | 1009 | 10 | N 0 | |
| Oggi h: 05:13 | Pioggia | 18 | 18 | 100 | 1009 | 6 | N 0 | |
| Oggi h: 04:53 | Pioggia | 18 | 18 | 100 | 1010 | 11 | N 0 | |
| Oggi h: 04:33 | Sereno | 18 | 18 | 100 | 1010 | 6 | N 0 | |
| Oggi h: 04:13 | Temporale nelle vicinanze | 18 | 18 | 100 | 1009 | 10 | N 0 | |
| Oggi h: 03:53 | Sereno | 18 | 18 | 100 | 1009 | 11 | N 0 | |
| Oggi h: 03:33 | Sereno | 18 | 17 | 93 | 1009 | 10 | N 0 | |
| Oggi h: 03:13 | Sereno | 17 | 17 | 100 | 1009 | 10 | N 0 | |
| Oggi h: 02:53 | Sereno | 17 | 17 | 100 | 1010 | 10 | N 0 | |
| Oggi h: 02:33 | Sereno | 17 | 17 | 100 | 1010 | 11 | N 0 | |
| Oggi h: 02:13 | Sereno | 17 | 17 | 100 | 1010 | 11 | N 0 | |
| Oggi h: 01:53 | Pioviggine | 17 | 17 | 100 | 1010 | 8 | N 0 | |
| Oggi h: 01:33 | Pioggia | 18 | 17 | 93 | 1011 | 6 | N 0 | |
| Oggi h: 01:13 | Temporale nelle vicinanze | 19 | 17 | 88 | 1010 | 10 | N 0 | |
| Oggi h: 00:53 | Temporale nelle vicinanze | 19 | 17 | 88 | 1011 | 10 | N 0 | |
| Oggi h: 00:33 | Coperto | 19 | 17 | 88 | 1011 | 10 | N 5.5 | |
| Oggi h: 00:13 | Coperto | 19 | 17 | 88 | 1012 | 10 | N 0 | |
| Ieri h: 23:53 | Coperto | 19 | 17 | 88 | 1012 | 10 | N 0 | |
| Ieri h: 23:33 | Molto Nuvoloso | 19 | 17 | 88 | 1012 | 10 | N 0 | |
| Ieri h: 23:13 | Nuvoloso | 19 | 17 | 88 | 1012 | 10 | N 0 | |
| Ieri h: 22:53 | Molto Nuvoloso | 19 | 17 | 88 | 1013 | 10 | N 0 | |
| Ieri h: 22:33 | Coperto | 19 | 17 | 88 | 1013 | 10 | N 0 | |
| Ieri h: 22:13 | Coperto | 19 | 17 | 88 | 1013 | 10 | N 0 | |
| Ieri h: 21:53 | Coperto | 19 | 17 | 88 | 1014 | 10 | N 0 | |
| Ieri h: 21:33 | Coperto | 19 | 17 | 88 | 1013 | 10 | N 0 | |
| Ieri h: 21:13 | Coperto | 19 | 17 | 88 | 1014 | 10 | N 0 | |
| Ieri h: 20:53 | Molto Nuvoloso | 19 | 17 | 88 | 1013 | 10 | N 0 | |
| Ieri h: 20:33 | Sereno | 18 | 17 | 93 | 1013 | 10 | N 0 | |



